Time;durP1;ratioP1;P1;durP2;ratioP2;P2;SDS_P1;SDS_P2;PMS_P1;PMS_P2;Temp;Humidity;BMP_temperature;BMP_pressure;BME280_temperature;BME280_humidity;BME280_pressure;Samples;Min_cycle;Max_cycle;Signal;HPM_P1;HPM_P2
2020/12/21 00:01:20;;;;;;;18.13;8.87;;;;;;;1.59;81.75;101292.12;1766846;78;21115;-59
2020/12/21 00:03:47;;;;;;;14.63;7.77;;;;;;;1.59;81.81;101298.75;1769139;78;21913;-58
2020/12/21 00:06:15;;;;;;;18.63;9.90;;;;;;;1.57;81.67;101297.84;1767084;78;21329;-61
2020/12/21 00:08:42;;;;;;;21.90;10.27;;;;;;;1.53;81.69;101297.78;1766942;78;21152;-59
2020/12/21 00:11:10;;;;;;;23.53;9.87;;;;;;;1.50;81.72;101296.44;1768302;78;21163;-62
2020/12/21 00:13:42;;;;;;;22.47;11.07;;;;;;;1.48;81.80;101301.26;1780034;78;21138;-61
2020/12/21 00:16:07;;;;;;;22.13;10.80;;;;;;;1.49;81.86;101305.70;1766421;78;21089;-63
2020/12/21 00:18:34;;;;;;;27.27;13.27;;;;;;;1.49;81.91;101298.63;1767839;78;21207;-58
2020/12/21 00:21:01;;;;;;;22.83;10.53;;;;;;;1.50;81.96;101304.83;1768393;78;21892;-59
2020/12/21 00:23:28;;;;;;;22.60;10.77;;;;;;;1.51;82.06;101305.30;1766769;78;21204;-57
2020/12/21 00:25:55;;;;;;;21.10;10.10;;;;;;;1.54;82.09;101302.66;1768558;78;21170;-59
2020/12/21 00:28:22;;;;;;;18.27;10.03;;;;;;;1.55;82.00;101298.24;1767445;78;21119;-58
2020/12/21 00:30:50;;;;;;;17.23;9.17;;;;;;;1.53;82.01;101299.11;1771314;78;21724;-58
2020/12/21 00:33:19;;;;;;;17.80;8.60;;;;;;;1.50;81.97;101304.40;1765711;78;21148;-59
2020/12/21 00:35:46;;;;;;;18.47;9.47;;;;;;;1.47;82.04;101297.72;1771222;78;21522;-58
2020/12/21 00:38:14;;;;;;;26.17;14.13;;;;;;;1.45;82.08;101304.75;1769359;78;21115;-57
2020/12/21 00:40:41;;;;;;;20.40;11.20;;;;;;;1.46;82.08;101300.34;1771538;78;21576;-62
2020/12/21 00:43:08;;;;;;;17.23;8.33;;;;;;;1.46;82.16;101293.70;1769665;79;21258;-57
2020/12/21 00:45:35;;;;;;;17.93;9.10;;;;;;;1.48;82.26;101286.23;1756167;80;21135;-58
2020/12/21 00:48:02;;;;;;;18.80;9.97;;;;;;;1.51;82.27;101288.05;1771324;78;22145;-58
2020/12/21 00:50:30;;;;;;;16.60;8.30;;;;;;;1.53;82.33;101288.07;1772750;78;21119;-59
2020/12/21 00:52:57;;;;;;;19.03;9.93;;;;;;;1.51;82.36;101287.61;1769797;78;21119;-59
2020/12/21 00:55:25;;;;;;;19.03;9.87;;;;;;;1.54;82.37;101292.04;1779075;78;21166;-58
2020/12/21 00:57:52;;;;;;;22.90;9.33;;;;;;;1.54;82.33;101284.08;1758355;79;21145;-59
2020/12/21 01:00:19;;;;;;;22.20;10.60;;;;;;;1.50;82.26;101281.84;1787083;78;21130;-58
2020/12/21 01:02:46;;;;;;;23.20;10.23;;;;;;;1.48;82.34;101283.58;1784645;78;21111;-58
2020/12/21 01:05:14;;;;;;;19.40;9.80;;;;;;;1.49;82.33;101277.84;1756425;79;21085;-62
2020/12/21 01:07:42;;;;;;;19.57;8.97;;;;;;;1.49;82.39;101284.03;1783864;78;21570;-60
2020/12/21 01:10:09;;;;;;;17.67;9.10;;;;;;;1.51;82.38;101280.97;1757263;79;21164;-60
2020/12/21 01:12:36;;;;;;;24.43;10.33;;;;;;;1.53;82.38;101289.82;1759919;79;21103;-62
2020/12/21 01:15:04;;;;;;;19.83;9.87;;;;;;;1.55;82.36;101292.50;1762053;79;21219;-62
2020/12/21 01:17:32;;;;;;;18.77;8.83;;;;;;;1.55;82.34;101286.30;1762125;79;21531;-58
2020/12/21 01:20:00;;;;;;;18.27;9.90;;;;;;;1.53;82.33;101291.14;1762963;79;21663;-60
2020/12/21 01:22:27;;;;;;;18.63;8.70;;;;;;;1.51;82.29;101290.27;1750338;80;21139;-59
2020/12/21 01:24:55;;;;;;;21.50;9.80;;;;;;;1.48;82.30;101290.21;1783651;78;21091;-58
2020/12/21 01:27:22;;;;;;;25.00;10.40;;;;;;;1.46;82.36;101286.64;1783898;78;21154;-58
2020/12/21 01:29:49;;;;;;;23.40;11.60;;;;;;;1.47;82.37;101280.90;1784358;78;21119;-57
2020/12/21 01:32:16;;;;;;;22.57;9.57;;;;;;;1.47;82.41;101278.25;1783230;78;21373;-58
2020/12/21 01:34:43;;;;;;;23.60;10.90;;;;;;;1.48;82.49;101276.94;1781741;78;21815;-59
2020/12/21 01:37:11;;;;;;;25.10;11.63;;;;;;;1.49;82.48;101280.49;1752892;79;21135;-60
2020/12/21 01:39:38;;;;;;;22.27;10.37;;;;;;;1.50;82.52;101276.97;1787011;78;21135;-59
2020/12/21 01:42:05;;;;;;;26.03;12.10;;;;;;;1.50;82.57;101284.93;1751780;80;21126;-63
2020/12/21 01:44:32;;;;;;;30.10;13.13;;;;;;;1.49;82.57;101280.49;1787830;78;21202;-62
2020/12/21 01:46:59;;;;;;;25.80;11.63;;;;;;;1.48;82.55;101276.94;1776306;78;21237;-57
2020/12/21 01:49:27;;;;;;;26.00;11.60;;;;;;;1.48;82.56;101278.27;1753322;79;21115;-58
2020/12/21 01:51:54;;;;;;;27.43;12.13;;;;;;;1.46;82.59;101275.13;1750303;80;21247;-61
2020/12/21 01:54:21;;;;;;;33.67;13.57;;;;;;;1.49;82.61;101280.05;1782311;78;21122;-58
2020/12/21 01:56:48;;;;;;;30.43;13.13;;;;;;;1.52;82.57;101281.87;1780159;78;21240;-60
2020/12/21 01:59:16;;;;;;;31.93;14.60;;;;;;;1.54;82.56;101274.79;1779993;78;21126;-60
2020/12/21 02:01:43;;;;;;;31.67;14.67;;;;;;;1.58;82.57;101283.70;1773467;78;20982;-59
2020/12/21 02:04:12;;;;;;;33.83;15.03;;;;;;;1.61;82.52;101280.66;1779361;78;21127;-61
2020/12/21 02:06:39;;;;;;;34.60;13.90;;;;;;;1.62;82.48;101273.12;1779875;78;21147;-57
2020/12/21 02:09:07;;;;;;;32.43;14.13;;;;;;;1.64;82.44;101277.13;1743782;80;21693;-61
2020/12/21 02:11:42;;;;;;;30.47;13.03;;;;;;;1.64;82.37;101274.47;1714980;81;21138;-59
2020/12/21 02:14:10;;;;;;;31.90;14.03;;;;;;;1.63;82.29;101275.34;1719202;81;21143;-61
2020/12/21 02:16:37;;;;;;;40.03;15.70;;;;;;;1.61;82.26;101271.80;1719117;81;21550;-60
2020/12/21 02:19:05;;;;;;;34.30;14.47;;;;;;;1.60;82.22;101274.89;1716741;81;21103;-61
2020/12/21 02:21:32;;;;;;;28.77;13.50;;;;;;;1.58;82.17;101270.42;1740732;80;21212;-61
2020/12/21 02:23:59;;;;;;;30.20;12.83;;;;;;;1.57;82.15;101263.33;1693799;81;21158;-59
2020/12/21 02:26:26;;;;;;;31.47;13.77;;;;;;;1.59;82.21;101269.56;1716664;81;21158;-61
2020/12/21 02:28:56;;;;;;;28.17;13.50;;;;;;;1.60;82.20;101276.66;1722088;81;21155;-61
2020/12/21 02:31:24;;;;;;;30.97;14.23;;;;;;;1.60;82.14;101266.03;1719117;81;21132;-62
2020/12/21 02:33:51;;;;;;;34.27;14.97;;;;;;;1.57;82.09;101266.88;1747364;80;22687;-61
2020/12/21 02:36:19;;;;;;;38.50;15.53;;;;;;;1.57;82.29;101260.67;1720355;81;21143;-62
2020/12/21 02:38:46;;;;;;;39.70;17.70;;;;;;;1.57;82.30;101262.00;1731364;81;21653;-61
2020/12/21 02:41:17;;;;;;;36.00;16.03;;;;;;;1.56;82.28;101262.88;1726909;81;21769;-61
2020/12/21 02:43:45;;;;;;;51.77;18.40;;;;;;;1.53;82.33;101263.28;1731225;81;21834;-62
2020/12/21 02:46:16;;;;;;;47.23;18.10;;;;;;;1.53;82.42;101262.42;1728043;81;21869;-62
2020/12/21 02:48:46;;;;;;;48.73;19.30;;;;;;;1.53;82.39;101258.88;1727134;81;21131;-62
2020/12/21 02:51:16;;;;;;;46.23;19.20;;;;;;;1.55;82.40;101272.59;1705373;81;21752;-60
2020/12/21 02:53:43;;;;;;;50.93;19.80;;;;;;;1.54;82.36;101276.12;1730256;81;21143;-60
2020/12/21 02:56:11;;;;;;;41.00;18.53;;;;;;;1.54;82.42;101273.47;1757250;78;21115;-62
2020/12/21 02:58:38;;;;;;;45.27;20.33;;;;;;;1.55;82.41;101280.99;1766430;78;22237;-61
2020/12/21 03:01:06;;;;;;;50.53;21.00;;;;;;;1.53;82.50;101278.78;1752911;79;21131;-61
2020/12/21 03:03:34;;;;;;;47.30;19.47;;;;;;;1.49;82.46;101280.05;1750286;79;21670;-61
2020/12/21 03:06:01;;;;;;;44.20;20.00;;;;;;;1.48;82.66;101278.70;1761007;79;21115;-60
2020/12/21 03:08:29;;;;;;;47.73;19.10;;;;;;;1.47;82.73;101280.46;1762477;79;21135;-61
2020/12/21 03:10:56;;;;;;;49.43;20.93;;;;;;;1.46;82.74;101285.31;1765938;79;21379;-61
2020/12/21 03:13:23;;;;;;;48.47;20.20;;;;;;;1.44;82.80;101288.84;1763382;79;21143;-61
2020/12/21 03:15:50;;;;;;;44.50;18.70;;;;;;;1.44;82.77;101292.82;1760783;79;21140;-62
2020/12/21 03:18:17;;;;;;;38.27;15.83;;;;;;;1.45;82.94;101290.59;1762137;79;21123;-61
2020/12/21 03:20:45;;;;;;;38.57;16.97;;;;;;;1.47;82.99;101283.12;1766743;79;21116;-61
2020/12/21 03:23:12;;;;;;;42.53;18.17;;;;;;;1.49;83.04;101292.00;1764071;79;21597;-60
2020/12/21 03:25:39;;;;;;;43.03;19.07;;;;;;;1.51;83.08;101292.91;1763400;79;21156;-62
2020/12/21 03:28:06;;;;;;;50.07;19.60;;;;;;;1.55;83.10;101287.63;1766810;79;21103;-61
2020/12/21 03:30:33;;;;;;;44.13;21.00;;;;;;;1.53;82.98;101293.80;1764673;79;21112;-60
2020/12/21 03:33:00;;;;;;;51.33;21.13;;;;;;;1.47;82.93;101291.52;1758383;79;21109;-61
2020/12/21 03:35:29;;;;;;;47.07;23.17;;;;;;;1.41;83.08;101288.36;1752914;79;21833;-61
2020/12/21 03:37:56;;;;;;;51.43;21.57;;;;;;;1.38;83.17;101290.06;1756439;80;21158;-62
2020/12/21 03:40:23;;;;;;;42.83;18.17;;;;;;;1.38;83.24;101290.06;1767184;78;21107;-60
2020/12/21 03:42:50;;;;;;;41.13;17.83;;;;;;;1.40;83.36;101279.94;1768338;78;21131;-60
2020/12/21 03:45:17;;;;;;;46.13;19.40;;;;;;;1.43;83.40;101287.95;1766005;78;21113;-60
2020/12/21 03:47:45;;;;;;;68.80;33.00;;;;;;;1.47;83.54;101288.42;1773494;78;21202;-61
2020/12/21 03:50:12;;;;;;;46.33;20.37;;;;;;;1.51;83.50;101287.61;1754458;80;21164;-60
2020/12/21 03:52:40;;;;;;;41.37;18.53;;;;;;;1.53;83.47;101289.82;1780961;78;21191;-61
2020/12/21 03:55:07;;;;;;;50.37;21.40;;;;;;;1.53;83.52;101287.17;1770480;78;21114;-60
2020/12/21 03:57:34;;;;;;;45.17;19.03;;;;;;;1.54;83.49;101289.39;1767026;79;21128;-61
2020/12/21 04:00:02;;;;;;;47.53;18.33;;;;;;;1.53;83.54;101284.52;1765256;79;21209;-60
2020/12/21 04:02:33;;;;;;;46.17;17.63;;;;;;;1.53;83.54;101283.66;1765577;79;21230;-61
2020/12/21 04:05:07;;;;;;;43.80;16.67;;;;;;;1.53;83.54;101290.72;1768076;79;21173;-61
2020/12/21 04:07:35;;;;;;;47.53;18.02;;;;;;;1.53;83.54;101280.53;1770300;79;21522;-61
2020/12/21 04:10:05;;;;;;;39.90;16.53;;;;;;;1.55;83.54;101282.31;1764710;79;21519;-60
2020/12/21 04:12:33;;;;;;;41.47;17.20;;;;;;;1.56;83.56;101282.78;1768604;79;21209;-61
2020/12/21 04:15:02;;;;;;;39.00;16.10;;;;;;;1.57;83.60;101282.80;1765375;79;21183;-62
2020/12/21 04:17:29;;;;;;;37.37;16.53;;;;;;;1.57;83.60;101287.22;1766077;79;22001;-60
2020/12/21 04:19:57;;;;;;;42.00;17.00;;;;;;;1.56;83.57;101284.10;1777062;78;21096;-61
2020/12/21 04:22:24;;;;;;;47.97;19.50;;;;;;;1.56;83.71;101282.34;1765851;79;21087;-61
2020/12/21 04:24:52;;;;;;;45.37;19.77;;;;;;;1.55;83.69;101283.21;1765112;79;21562;-60
2020/12/21 04:27:20;;;;;;;47.80;17.67;;;;;;;1.53;83.68;101282.77;1763231;79;21498;-60
2020/12/21 04:29:47;;;;;;;45.70;18.53;;;;;;;1.48;83.63;101279.59;1765648;79;21123;-60
2020/12/21 04:32:14;;;;;;;45.83;18.33;;;;;;;1.45;83.52;101278.22;1765690;79;21103;-61
2020/12/21 04:34:42;;;;;;;38.80;16.83;;;;;;;1.44;83.64;101279.12;1764807;79;21116;-61
2020/12/21 04:37:09;;;;;;;35.30;16.50;;;;;;;1.43;83.62;101280.42;1767587;79;21351;-62
2020/12/21 04:39:36;;;;;;;39.97;18.30;;;;;;;1.36;83.56;101278.56;1766283;79;21546;-61
2020/12/21 04:42:05;;;;;;;39.43;18.07;;;;;;;1.31;83.70;101282.90;1765672;79;21099;-62
2020/12/21 04:44:32;;;;;;;43.97;16.83;;;;;;;1.30;83.89;101275.38;1767329;79;21091;-62
2020/12/21 04:47:00;;;;;;;41.90;17.57;;;;;;;1.32;84.09;101276.73;1768419;79;21502;-60
2020/12/21 04:49:27;;;;;;;40.50;16.63;;;;;;;1.34;84.25;101274.56;1762850;79;21477;-60
2020/12/21 04:51:54;;;;;;;36.17;15.67;;;;;;;1.37;84.32;101271.03;1764590;79;21112;-62
2020/12/21 04:54:22;;;;;;;41.13;16.97;;;;;;;1.37;84.30;101269.27;1765274;79;21496;-61
2020/12/21 04:56:49;;;;;;;37.60;14.33;;;;;;;1.39;84.33;101264.88;1766537;79;21160;-61
2020/12/21 04:59:16;;;;;;;35.63;15.40;;;;;;;1.44;84.33;101272.48;1766850;79;21103;-62
2020/12/21 05:01:44;;;;;;;39.80;15.73;;;;;;;1.46;84.22;101268.06;1769332;79;22437;-62
2020/12/21 05:04:16;;;;;;;36.70;15.23;;;;;;;1.46;84.23;101273.80;1767286;79;21135;-62
2020/12/21 05:06:54;;;;;;;40.40;16.13;;;;;;;1.49;84.33;101272.53;1765826;79;21273;-62
2020/12/21 05:09:22;;;;;;;37.03;14.63;;;;;;;1.50;84.26;101275.20;1765111;79;21170;-60
2020/12/21 05:12:03;;;;;;;47.40;17.67;;;;;;;1.48;84.30;101271.64;1765727;79;21162;-61
2020/12/21 05:14:33;;;;;;;51.90;19.47;;;;;;;1.48;84.23;101271.64;1770461;79;21598;-61
2020/12/21 05:17:13;;;;;;;46.87;18.80;;;;;;;1.44;84.13;101275.14;1767302;79;21578;-61
2020/12/21 05:19:43;;;;;;;43.77;18.53;;;;;;;1.39;84.10;101281.23;1765915;79;21569;-60
2020/12/21 05:22:13;;;;;;;40.17;16.77;;;;;;;1.37;84.31;101275.91;1767688;79;21095;-61
2020/12/21 05:24:42;;;;;;;40.77;17.40;;;;;;;1.38;84.34;101279.02;1766545;79;21140;-61
2020/12/21 05:27:15;;;;;;;35.27;15.83;;;;;;;1.39;84.33;101276.82;1764969;79;22108;-62
2020/12/21 05:29:53;;;;;;;41.60;17.33;;;;;;;1.41;84.48;101276.41;1764896;79;21155;-61
2020/12/21 05:32:21;;;;;;;34.30;14.83;;;;;;;1.48;84.60;101277.37;1749388;80;21168;-60
2020/12/21 05:34:48;;;;;;;33.50;15.40;;;;;;;1.51;84.65;101272.13;1764922;79;21114;-61
2020/12/21 05:37:19;;;;;;;42.10;17.63;;;;;;;1.53;84.66;101276.55;1766277;79;21861;-62
2020/12/21 05:39:51;;;;;;;44.70;18.00;;;;;;;1.57;84.69;101284.56;1767850;79;21380;-62
2020/12/21 05:42:18;;;;;;;40.70;17.80;;;;;;;1.57;84.70;101281.47;1763940;79;21108;-62
2020/12/21 05:45:06;;;;;;;38.60;16.87;;;;;;;1.59;84.70;101282.83;1770291;79;21138;-61
2020/12/21 05:47:34;;;;;;;39.03;15.23;;;;;;;1.61;84.71;101279.77;1764713;79;21117;-61
2020/12/21 05:50:05;;;;;;;40.43;17.27;;;;;;;1.65;84.59;101280.23;1765996;79;21147;-62
2020/12/21 05:52:34;;;;;;;35.30;15.27;;;;;;;1.67;84.55;101278.50;1765287;79;21378;-61
2020/12/21 05:55:03;;;;;;;33.20;14.33;;;;;;;1.68;84.57;101285.59;1767920;79;21175;-62
2020/12/21 05:57:31;;;;;;;32.70;15.07;;;;;;;1.68;84.38;101285.16;1770198;78;21135;-62
2020/12/21 05:59:59;;;;;;;34.13;14.77;;;;;;;1.69;84.35;101284.73;1769651;78;21139;-61
2020/12/21 06:02:30;;;;;;;42.60;17.03;;;;;;;1.68;84.36;101285.59;1773145;78;21087;-61
2020/12/21 06:05:05;;;;;;;30.73;13.77;;;;;;;1.67;84.42;101280.72;1765478;78;21195;-61
2020/12/21 06:09:58;;;;;;;42.20;17.83;;;;;;;1.73;84.40;101288.75;1816861;76;26625;-62
2020/12/21 06:12:26;;;;;;;38.73;16.53;;;;;;;1.67;84.42;101286.47;1791919;77;21303;-60
2020/12/21 06:15:01;;;;;;;37.93;15.73;;;;;;;1.70;84.46;101298.45;1798932;77;21180;-60
2020/12/21 06:17:34;;;;;;;38.67;16.67;;;;;;;1.74;84.46;101292.30;1796492;79;21308;-59
2020/12/21 06:20:06;;;;;;;35.57;16.07;;;;;;;1.77;84.47;101301.20;1788373;77;21139;-62
2020/12/21 06:22:34;;;;;;;37.23;15.70;;;;;;;1.77;84.42;101291.91;1802360;78;21596;-58
2020/12/21 06:25:05;;;;;;;33.70;14.73;;;;;;;1.80;84.47;101289.70;1790516;78;20969;-58
2020/12/21 06:27:40;;;;;;;41.43;16.00;;;;;;;1.83;84.53;101292.41;1786003;79;21190;-60
2020/12/21 06:30:09;;;;;;;43.23;15.97;;;;;;;1.84;84.59;101295.52;1794292;79;21426;-58
2020/12/21 06:32:37;;;;;;;34.50;16.13;;;;;;;1.85;84.58;101295.55;1799999;78;20961;-61
2020/12/21 06:35:19;;;;;;;48.57;20.07;;;;;;;1.85;84.58;101302.62;1798053;77;21111;-62
2020/12/21 06:37:58;;;;;;;56.03;20.27;;;;;;;1.83;84.48;101303.03;1802671;79;21475;-58
2020/12/21 06:40:34;;;;;;;49.13;20.43;;;;;;;1.83;84.48;101308.34;1794450;77;21273;-59
2020/12/21 06:43:14;;;;;;;51.07;21.57;;;;;;;1.82;84.45;101304.79;1794745;78;21222;-61
2020/12/21 06:45:43;;;;;;;53.37;23.00;;;;;;;1.81;84.51;101304.77;1791147;77;21103;-58
2020/12/21 06:48:10;;;;;;;56.10;23.87;;;;;;;1.82;84.48;101305.22;1794298;77;21458;-58
2020/12/21 06:50:37;;;;;;;59.57;24.03;;;;;;;1.80;84.47;101303.88;1757884;79;21103;-59
2020/12/21 06:53:08;;;;;;;49.83;20.10;;;;;;;1.79;84.47;101311.81;1792081;79;21637;-59
2020/12/21 06:55:36;;;;;;;54.50;19.93;;;;;;;1.78;84.61;101312.72;1791799;79;21139;-58
2020/12/21 06:58:03;;;;;;;47.00;20.67;;;;;;;1.79;84.65;101317.12;1797963;77;21130;-58
2020/12/21 07:00:32;;;;;;;43.27;17.83;;;;;;;1.80;84.70;101321.56;1795663;77;21092;-57
2020/12/21 07:02:59;;;;;;;40.27;14.07;;;;;;;1.78;84.67;101314.94;1790552;78;21415;-57
2020/12/21 07:05:26;;;;;;;30.23;13.03;;;;;;;1.80;84.70;101316.25;1798464;77;21447;-58
2020/12/21 07:07:58;;;;;;;25.20;10.97;;;;;;;1.80;84.62;101319.80;1778914;79;21095;-56
2020/12/21 07:10:26;;;;;;;23.43;11.43;;;;;;;1.81;84.65;101324.67;1784370;79;22113;-59
2020/12/21 07:12:54;;;;;;;22.63;9.80;;;;;;;1.82;84.66;101319.83;1786145;78;22426;-58
2020/12/21 07:15:21;;;;;;;19.00;8.27;;;;;;;1.83;84.61;101319.85;1782051;78;21107;-60
2020/12/21 07:17:48;;;;;;;21.00;9.77;;;;;;;1.85;84.59;101316.78;1786695;78;22390;-60
2020/12/21 07:20:16;;;;;;;25.10;10.23;;;;;;;1.86;84.65;101312.37;1755939;79;21123;-58
2020/12/21 07:22:43;;;;;;;23.40;10.93;;;;;;;1.88;84.63;101317.23;1781601;79;21059;-59
2020/12/21 07:25:11;;;;;;;21.07;7.50;;;;;;;1.88;84.61;101315.91;1780818;78;21388;-60
2020/12/21 07:27:39;;;;;;;17.83;7.17;;;;;;;1.88;84.54;101309.27;1745550;80;21165;-61
2020/12/21 07:30:09;;;;;;;16.17;7.10;;;;;;;1.88;84.50;101312.81;1715430;81;22990;-58
2020/12/21 07:32:36;;;;;;;14.57;6.63;;;;;;;1.91;84.42;101309.31;1721025;81;21125;-58
2020/12/21 07:35:05;;;;;;;12.33;5.47;;;;;;;1.93;84.39;101309.34;1742760;81;21086;-57
2020/12/21 07:37:32;;;;;;;12.73;5.37;;;;;;;1.95;84.39;101313.80;1749629;80;21122;-58
2020/12/21 07:39:59;;;;;;;10.43;5.17;;;;;;;1.98;84.25;101309.83;1722622;81;21098;-58
2020/12/21 07:42:27;;;;;;;9.90;4.77;;;;;;;2.00;84.17;101309.42;1754726;81;21410;-58
2020/12/21 07:44:58;;;;;;;7.57;4.13;;;;;;;2.01;84.03;101313.86;1722660;83;21929;-57
2020/12/21 07:47:30;;;;;;;9.87;4.90;;;;;;;2.00;84.00;101312.08;1749778;81;21786;-60
2020/12/21 07:49:58;;;;;;;8.85;4.70;;;;;;;2.01;83.86;101313.86;1745267;81;21603;-56
2020/12/21 07:52:25;;;;;;;8.30;3.83;;;;;;;2.01;83.72;101312.53;1718849;81;21437;-58
2020/12/21 07:54:52;;;;;;;7.90;3.30;;;;;;;1.99;83.58;101314.71;1751569;80;22067;-58
2020/12/21 07:57:20;;;;;;;8.53;3.50;;;;;;;1.98;83.55;101317.80;1752284;81;21122;-61
2020/12/21 07:59:58;;;;;;;8.60;4.03;;;;;;;1.99;83.46;101310.73;1719112;81;21162;-59
2020/12/21 08:02:26;;;;;;;8.73;3.23;;;;;;;2.01;83.48;101313.86;1758465;80;21083;-58
2020/12/21 08:04:54;;;;;;;4.20;3.10;;;;;;;2.03;83.45;101297.95;1763458;80;21059;-58
2020/12/21 08:07:26;;;;;;;5.77;3.07;;;;;;;2.08;83.39;101298.44;1768059;80;21190;-58
2020/12/21 08:09:53;;;;;;;6.63;3.13;;;;;;;2.12;83.39;101296.72;1770920;79;20977;-58
2020/12/21 08:12:21;;;;;;;5.13;2.80;;;;;;;2.14;83.31;101294.95;1738870;81;21146;-59
2020/12/21 08:15:00;;;;;;;5.13;2.63;;;;;;;2.17;83.28;101295.88;1723833;81;21114;-60
2020/12/21 08:17:31;;;;;;;5.93;3.13;;;;;;;2.20;83.24;101291.05;1723098;81;21106;-58
2020/12/21 08:20:01;;;;;;;7.17;3.20;;;;;;;2.22;83.21;101295.48;1764101;79;22247;-60
2020/12/21 08:22:30;;;;;;;5.73;3.27;;;;;;;2.24;83.15;101291.08;1690529;82;21135;-57
2020/12/21 08:25:11;;;;;;;4.37;2.13;;;;;;;2.27;83.04;101294.22;1775888;79;20969;-58
2020/12/21 08:27:42;;;;;;;8.63;3.93;;;;;;;2.30;82.90;101300.01;1769541;79;21107;-61
2020/12/21 08:30:14;;;;;;;18.40;9.27;;;;;;;2.33;82.87;101301.34;1774962;80;21096;-59
2020/12/21 08:32:42;;;;;;;6.77;3.07;;;;;;;2.37;82.83;101304.50;1776895;80;21892;-59
2020/12/21 08:35:09;;;;;;;2.83;1.53;;;;;;;2.39;82.81;101304.94;1770875;80;21083;-57
2020/12/21 08:37:37;;;;;;;4.03;1.87;;;;;;;2.42;82.61;101303.66;1779937;80;21106;-57
2020/12/21 08:40:15;;;;;;;2.80;1.73;;;;;;;2.42;82.53;101300.11;1740918;81;21071;-57
2020/12/21 08:42:43;;;;;;;2.93;2.03;;;;;;;2.43;82.48;101298.80;1722488;82;21118;-58
2020/12/21 08:45:21;;;;;;;3.17;1.60;;;;;;;2.42;82.31;101297.02;1772980;79;21768;-58
2020/12/21 08:47:51;;;;;;;5.47;1.93;;;;;;;2.40;82.24;101300.08;1770116;80;20977;-59
2020/12/21 08:50:19;;;;;;;4.07;1.97;;;;;;;2.38;82.21;101297.87;1772031;79;20993;-58
2020/12/21 08:52:48;;;;;;;3.80;1.77;;;;;;;2.38;82.17;101301.86;1772682;79;21099;-58
2020/12/21 08:55:15;;;;;;;2.50;1.73;;;;;;;2.38;82.07;101300.53;1777504;80;21372;-56
2020/12/21 08:57:43;;;;;;;4.00;2.20;;;;;;;2.38;82.00;101300.97;1779162;80;21183;-61
2020/12/21 09:00:11;;;;;;;3.90;1.80;;;;;;;2.37;82.05;101303.17;1778013;80;21107;-58
2020/12/21 09:02:38;;;;;;;2.10;1.43;;;;;;;2.38;81.94;101304.95;1781237;80;21157;-57
2020/12/21 09:05:05;;;;;;;2.10;1.13;;;;;;;2.39;81.96;101301.39;1777165;79;21027;-58
2020/12/21 09:07:34;;;;;;;2.10;1.57;;;;;;;2.40;81.95;101292.55;1778601;79;21123;-57
2020/12/21 09:10:04;;;;;;;2.63;2.07;;;;;;;2.41;81.81;101291.67;1778864;80;21522;-57
2020/12/21 09:12:34;;;;;;;3.27;2.27;;;;;;;2.39;81.79;101290.77;1779036;79;21198;-58
2020/12/21 09:15:02;;;;;;;1.90;1.73;;;;;;;2.39;81.75;101289.44;1779645;79;21183;-57
2020/12/21 09:17:29;;;;;;;2.27;1.10;;;;;;;2.35;81.77;101291.19;1779977;79;21615;-57
2020/12/21 09:19:56;;;;;;;2.43;1.80;;;;;;;2.34;81.69;101290.73;1774982;80;21100;-56
2020/12/21 09:22:26;;;;;;;2.77;1.47;;;;;;;2.34;81.66;101296.48;1767533;79;21195;-57
2020/12/21 09:24:54;;;;;;;2.47;1.87;;;;;;;2.34;81.69;101291.17;1778477;79;21238;-57
2020/12/21 09:27:21;;;;;;;2.93;1.93;;;;;;;2.34;81.71;101285.42;1773600;79;21214;-56
2020/12/21 09:29:49;;;;;;;3.17;2.00;;;;;;;2.35;81.69;101286.31;1771190;79;21195;-58
2020/12/21 09:32:16;;;;;;;2.90;1.80;;;;;;;2.35;81.73;101287.64;1777848;80;21143;-57
2020/12/21 09:34:43;;;;;;;2.23;1.40;;;;;;;2.36;81.74;101274.81;1777799;80;21829;-58
2020/12/21 09:37:13;;;;;;;2.43;1.70;;;;;;;2.37;81.66;101280.58;1777105;80;21206;-57
2020/12/21 09:39:41;;;;;;;2.13;1.70;;;;;;;2.35;81.61;101277.91;1777246;79;21162;-58
2020/12/21 09:42:08;;;;;;;2.10;1.20;;;;;;;2.33;81.65;101271.67;1774539;79;21203;-59
2020/12/21 09:44:36;;;;;;;2.20;1.47;;;;;;;2.33;81.63;101275.66;1772459;80;21830;-58
2020/12/21 09:47:03;;;;;;;2.57;1.87;;;;;;;2.35;81.65;101271.27;1775158;79;21861;-58
2020/12/21 09:49:30;;;;;;;3.57;1.83;;;;;;;2.37;81.58;101268.63;1775683;79;21572;-59
2020/12/21 09:51:57;;;;;;;4.80;2.93;;;;;;;2.37;81.60;101269.52;1777610;79;21175;-58
2020/12/21 09:54:25;;;;;;;6.77;3.53;;;;;;;2.38;81.63;101270.41;1774801;79;21171;-57
2020/12/21 09:56:52;;;;;;;3.73;2.33;;;;;;;2.40;81.60;101270.85;1771747;79;21198;-57
2020/12/21 09:59:20;;;;;;;4.67;2.43;;;;;;;2.40;81.59;101267.30;1777307;79;22572;-57
2020/12/21 10:01:47;;;;;;;5.00;3.37;;;;;;;2.39;81.53;101264.19;1776842;79;21151;-58
2020/12/21 10:04:15;;;;;;;4.23;2.50;;;;;;;2.35;81.54;101263.29;1780614;79;21202;-59
2020/12/21 10:06:50;;;;;;;6.00;2.40;;;;;;;2.31;81.57;101260.57;1781504;79;21155;-60
2020/12/21 10:09:19;;;;;;;6.47;3.03;;;;;;;2.30;81.66;101262.81;1770559;79;21242;-59
2020/12/21 10:11:52;;;;;;;2.57;1.80;;;;;;;2.30;81.69;101256.16;1771032;79;21183;-58
2020/12/21 10:16:34;;;;;;;1.90;1.30;;;;;;;2.33;81.77;101267.69;1792777;78;26694;-58
2020/12/21 10:19:02;;;;;;;2.83;1.63;;;;;;;2.28;81.79;101269.43;1767980;80;21017;-59
2020/12/21 10:21:29;;;;;;;4.87;2.03;;;;;;;2.27;81.76;101264.98;1769809;80;23152;-58
2020/12/21 10:23:56;;;;;;;3.93;2.07;;;;;;;2.26;81.73;101260.55;1771145;80;21210;-60
2020/12/21 10:26:24;;;;;;;2.70;1.80;;;;;;;2.23;81.72;101261.40;1767403;79;21484;-59
2020/12/21 10:28:51;;;;;;;2.60;1.57;;;;;;;2.21;81.73;101255.64;1729988;81;21067;-62
2020/12/21 10:31:18;;;;;;;3.30;1.70;;;;;;;2.20;81.67;101265.38;1712668;81;21238;-62
2020/12/21 10:33:46;;;;;;;1.67;1.27;;;;;;;2.17;81.67;101260.02;1717257;81;21246;-61
2020/12/21 10:36:15;;;;;;;5.97;2.73;;;;;;;2.18;81.65;101263.14;1733634;81;21531;-59
2020/12/21 10:38:42;;;;;;;3.20;1.93;;;;;;;2.18;81.56;101257.82;1728766;81;21040;-60
2020/12/21 10:41:10;;;;;;;3.77;2.10;;;;;;;2.18;81.53;101255.60;1741225;81;21171;-62
2020/12/21 10:43:37;;;;;;;4.80;2.30;;;;;;;2.16;81.56;101252.92;1740057;81;21213;-59
2020/12/21 10:46:04;;;;;;;5.27;2.57;;;;;;;2.16;81.60;101256.02;1710239;83;22100;-57
2020/12/21 10:48:31;;;;;;;4.07;2.60;;;;;;;2.16;81.59;101250.27;1739573;81;21211;-60
2020/12/21 10:50:58;;;;;;;4.90;2.67;;;;;;;2.16;81.62;101253.36;1715220;81;21190;-57
2020/12/21 10:53:25;;;;;;;2.97;2.23;;;;;;;2.14;81.64;101250.68;1736674;81;21187;-59
2020/12/21 10:58:31;;;;;;;6.23;3.17;;;;;;;2.17;81.71;101246.73;1864981;74;27218;-59
2020/12/21 11:00:58;;;;;;;2.33;2.07;;;;;;;2.15;81.73;101249.81;1838523;75;21831;-62
2020/12/21 11:03:26;;;;;;;3.10;2.33;;;;;;;2.17;81.83;101245.41;1830912;75;21210;-61
2020/12/21 11:05:53;;;;;;;4.77;2.63;;;;;;;2.19;81.86;101242.34;1843791;75;21236;-57
2020/12/21 11:08:20;;;;;;;4.77;2.87;;;;;;;2.21;81.87;101247.20;1820860;77;21159;-60
2020/12/21 11:10:47;;;;;;;5.37;3.13;;;;;;;2.20;81.86;101253.42;1821925;77;21510;-62
2020/12/21 11:13:14;;;;;;;4.30;2.93;;;;;;;2.20;81.86;101248.55;1819143;77;21167;-60
2020/12/21 11:15:43;;;;;;;5.73;3.07;;;;;;;2.18;81.82;101245.87;1817259;77;21264;-62
2020/12/21 11:18:10;;;;;;;2.80;2.53;;;;;;;2.16;81.83;101244.06;1761151;79;21055;-58
2020/12/21 11:20:37;;;;;;;5.53;2.47;;;;;;;2.14;81.82;101240.48;1755018;80;21054;-58
2020/12/21 11:23:05;;;;;;;5.13;3.17;;;;;;;2.14;81.84;101240.48;1782732;78;21091;-58
2020/12/21 11:25:32;;;;;;;2.70;1.77;;;;;;;2.13;81.85;101233.39;1784476;79;21590;-59
2020/12/21 11:28:00;;;;;;;4.73;2.93;;;;;;;2.12;81.86;101235.19;1783577;79;23590;-60
2020/12/21 11:30:27;;;;;;;6.00;4.37;;;;;;;2.13;81.80;101237.37;1781608;78;21422;-59
2020/12/21 11:32:54;;;;;;;6.63;3.13;;;;;;;2.12;81.82;101240.94;1781830;79;21199;-59
2020/12/21 11:35:22;;;;;;;6.07;4.00;;;;;;;2.10;81.87;101240.92;1752538;80;21183;-61
2020/12/21 11:37:50;;;;;;;5.77;4.00;;;;;;;2.12;81.97;101239.61;1762813;79;21142;-61